sensor_id;sensor_type;location;lat;lon;timestamp;pressure;altitude;pressure_sealevel;temperature;humidity
71966;BME280;59836;52.132;5.442;2022-07-18T00:01:55;102520.06;;;16.30;70.35
71966;BME280;59836;52.132;5.442;2022-07-18T00:04:22;102515.13;;;16.27;70.56
71966;BME280;59836;52.132;5.442;2022-07-18T00:06:49;102518.13;;;16.25;70.79
71966;BME280;59836;52.132;5.442;2022-07-18T00:09:15;102518.97;;;16.26;70.62
71966;BME280;59836;52.132;5.442;2022-07-18T00:11:42;102514.03;;;16.22;70.30
71966;BME280;59836;52.132;5.442;2022-07-18T00:14:08;102517.53;;;16.18;70.57
71966;BME280;59836;52.132;5.442;2022-07-18T00:16:35;102515.63;;;16.13;70.41
71966;BME280;59836;52.132;5.442;2022-07-18T00:19:02;102513.66;;;16.08;70.67
71966;BME280;59836;52.132;5.442;2022-07-18T00:21:29;102516.69;;;16.07;71.09
71966;BME280;59836;52.132;5.442;2022-07-18T00:23:56;102509.81;;;16.04;71.31
71966;BME280;59836;52.132;5.442;2022-07-18T00:26:22;102502.66;;;15.98;71.81
71966;BME280;59836;52.132;5.442;2022-07-18T00:28:49;102511.97;;;15.97;71.94
71966;BME280;59836;52.132;5.442;2022-07-18T00:31:15;102504.28;;;15.94;72.18
71966;BME280;59836;52.132;5.442;2022-07-18T00:33:42;102509.50;;;15.96;71.86
71966;BME280;59836;52.132;5.442;2022-07-18T00:36:08;102503.47;;;15.93;71.84
71966;BME280;59836;52.132;5.442;2022-07-18T00:38:35;102504.81;;;15.91;72.01
71966;BME280;59836;52.132;5.442;2022-07-18T00:41:02;102493.59;;;15.87;72.31
71966;BME280;59836;52.132;5.442;2022-07-18T00:43:29;102492.19;;;15.85;72.82
71966;BME280;59836;52.132;5.442;2022-07-18T00:45:55;102502.25;;;15.79;72.58
71966;BME280;59836;52.132;5.442;2022-07-18T00:48:22;102497.06;;;15.77;73.11
71966;BME280;59836;52.132;5.442;2022-07-18T00:50:48;102495.66;;;15.75;73.57
71966;BME280;59836;52.132;5.442;2022-07-18T00:53:15;102492.38;;;15.73;73.54
71966;BME280;59836;52.132;5.442;2022-07-18T00:55:44;102491.00;;;15.70;73.40
71966;BME280;59836;52.132;5.442;2022-07-18T00:58:12;102489.03;;;15.65;74.16
71966;BME280;59836;52.132;5.442;2022-07-18T01:00:39;102489.03;;;15.65;74.39
71966;BME280;59836;52.132;5.442;2022-07-18T01:03:24;102496.69;;;15.63;74.22
71966;BME280;59836;52.132;5.442;2022-07-18T01:05:51;102489.84;;;15.61;74.25
71966;BME280;59836;52.132;5.442;2022-07-18T01:08:18;102494.75;;;15.59;74.54
71966;BME280;59836;52.132;5.442;2022-07-18T01:10:44;102492.25;;;15.57;74.45
71966;BME280;59836;52.132;5.442;2022-07-18T01:13:11;102490.63;;;15.56;74.03
71966;BME280;59836;52.132;5.442;2022-07-18T01:15:38;102485.94;;;15.52;74.27
71966;BME280;59836;52.132;5.442;2022-07-18T01:18:04;102493.31;;;15.51;74.31
71966;BME280;59836;52.132;5.442;2022-07-18T01:20:31;102488.38;;;15.48;74.32
71966;BME280;59836;52.132;5.442;2022-07-18T01:22:58;102490.25;;;15.42;74.54
71966;BME280;59836;52.132;5.442;2022-07-18T01:25:26;102484.47;;;15.39;74.39
71966;BME280;59836;52.132;5.442;2022-07-18T01:27:53;102475.75;;;15.37;74.31
71966;BME280;59836;52.132;5.442;2022-07-18T01:30:20;102479.56;;;15.35;74.56
71966;BME280;59836;52.132;5.442;2022-07-18T01:32:54;102480.09;;;15.32;74.58
71966;BME280;59836;52.132;5.442;2022-07-18T01:35:22;102488.53;;;15.31;74.81
71966;BME280;59836;52.132;5.442;2022-07-18T01:37:54;102489.03;;;15.28;74.77
71966;BME280;59836;52.132;5.442;2022-07-18T01:40:21;102481.13;;;15.26;75.01
71966;BME280;59836;52.132;5.442;2022-07-18T01:42:48;102484.94;;;15.25;75.15
71966;BME280;59836;52.132;5.442;2022-07-18T01:45:15;102479.47;;;15.25;74.84
71966;BME280;59836;52.132;5.442;2022-07-18T01:47:41;102476.19;;;15.23;75.21
71966;BME280;59836;52.132;5.442;2022-07-18T01:50:10;102467.41;;;15.21;75.08
71966;BME280;59836;52.132;5.442;2022-07-18T01:52:37;102470.09;;;15.16;75.22
71966;BME280;59836;52.132;5.442;2022-07-18T01:55:05;102458.59;;;15.14;75.53
71966;BME280;59836;52.132;5.442;2022-07-18T01:57:32;102461.03;;;15.10;75.71
71966;BME280;59836;52.132;5.442;2022-07-18T01:59:59;102461.31;;;15.09;75.58
71966;BME280;59836;52.132;5.442;2022-07-18T02:02:25;102461.53;;;15.07;75.71
71966;BME280;59836;52.132;5.442;2022-07-18T02:04:52;102468.38;;;15.04;75.87
71966;BME280;59836;52.132;5.442;2022-07-18T02:07:32;102472.75;;;15.05;75.86
71966;BME280;59836;52.132;5.442;2022-07-18T02:09:59;102474.06;;;15.03;75.84
71966;BME280;59836;52.132;5.442;2022-07-18T02:12:26;102472.94;;;14.99;76.12
71966;BME280;59836;52.132;5.442;2022-07-18T02:14:53;102469.41;;;14.98;75.97
71966;BME280;59836;52.132;5.442;2022-07-18T02:17:20;102471.56;;;14.96;75.97
71966;BME280;59836;52.132;5.442;2022-07-18T02:19:47;102465.53;;;14.94;76.13
71966;BME280;59836;52.132;5.442;2022-07-18T02:22:13;102459.00;;;14.95;76.16
71966;BME280;59836;52.132;5.442;2022-07-18T02:24:40;102453.53;;;14.95;76.13
71966;BME280;59836;52.132;5.442;2022-07-18T02:27:07;102447.75;;;14.91;76.79
71966;BME280;59836;52.132;5.442;2022-07-18T02:29:34;102440.91;;;14.89;76.83
71966;BME280;59836;52.132;5.442;2022-07-18T02:32:00;102445.28;;;14.90;77.13
71966;BME280;59836;52.132;5.442;2022-07-18T02:34:27;102444.66;;;14.83;77.17
71966;BME280;59836;52.132;5.442;2022-07-18T02:36:53;102441.38;;;14.81;77.41
71966;BME280;59836;52.132;5.442;2022-07-18T02:39:20;102441.38;;;14.81;76.92
71966;BME280;59836;52.132;5.442;2022-07-18T02:41:47;102437.00;;;14.80;76.90
71966;BME280;59836;52.132;5.442;2022-07-18T02:44:14;102442.41;;;14.74;77.43
71966;BME280;59836;52.132;5.442;2022-07-18T02:46:41;102445.13;;;14.74;77.10
71966;BME280;59836;52.132;5.442;2022-07-18T02:49:07;102458.78;;;14.74;77.18
71966;BME280;59836;52.132;5.442;2022-07-18T02:51:34;102451.13;;;14.71;77.16
71966;BME280;59836;52.132;5.442;2022-07-18T02:54:00;102461.47;;;14.69;77.20
71966;BME280;59836;52.132;5.442;2022-07-18T02:56:27;102453.53;;;14.68;77.04
71966;BME280;59836;52.132;5.442;2022-07-18T02:58:54;102451.03;;;14.66;77.14
71966;BME280;59836;52.132;5.442;2022-07-18T03:01:20;102451.03;;;14.66;77.28
71966;BME280;59836;52.132;5.442;2022-07-18T03:03:46;102446.09;;;14.63;77.01
71966;BME280;59836;52.132;5.442;2022-07-18T03:06:13;102447.75;;;14.64;77.12
71966;BME280;59836;52.132;5.442;2022-07-18T03:08:40;102446.09;;;14.63;77.17
71966;BME280;59836;52.132;5.442;2022-07-18T03:11:06;102446.59;;;14.60;77.47
71966;BME280;59836;52.132;5.442;2022-07-18T03:13:33;102441.09;;;14.55;77.66
71966;BME280;59836;52.132;5.442;2022-07-18T03:15:59;102447.06;;;14.52;77.41
71966;BME280;59836;52.132;5.442;2022-07-18T03:18:26;102446.25;;;14.51;77.15
71966;BME280;59836;52.132;5.442;2022-07-18T03:20:52;102437.22;;;14.51;77.20
71966;BME280;59836;52.132;5.442;2022-07-18T03:23:19;102432.28;;;14.47;77.18
71966;BME280;59836;52.132;5.442;2022-07-18T03:25:45;102427.31;;;14.44;76.98
71966;BME280;59836;52.132;5.442;2022-07-18T03:28:12;102418.56;;;14.42;77.34
71966;BME280;59836;52.132;5.442;2022-07-18T03:30:38;102418.84;;;14.41;77.10
71966;BME280;59836;52.132;5.442;2022-07-18T03:33:05;102416.91;;;14.41;77.40
71966;BME280;59836;52.132;5.442;2022-07-18T03:35:32;102415.28;;;14.40;77.38
71966;BME280;59836;52.132;5.442;2022-07-18T03:37:58;102409.25;;;14.38;77.28
71966;BME280;59836;52.132;5.442;2022-07-18T03:40:25;102408.69;;;14.36;76.88
71966;BME280;59836;52.132;5.442;2022-07-18T03:42:51;102410.84;;;14.34;77.00
71966;BME280;59836;52.132;5.442;2022-07-18T03:45:18;102403.72;;;14.33;76.81
71966;BME280;59836;52.132;5.442;2022-07-18T03:47:45;102408.09;;;14.29;77.21
71966;BME280;59836;52.132;5.442;2022-07-18T03:50:11;102404.78;;;14.27;76.74
71966;BME280;59836;52.132;5.442;2022-07-18T03:52:37;102399.31;;;14.27;77.17
71966;BME280;59836;52.132;5.442;2022-07-18T03:55:04;102406.94;;;14.25;77.50
71966;BME280;59836;52.132;5.442;2022-07-18T03:57:31;102394.38;;;14.24;77.44
71966;BME280;59836;52.132;5.442;2022-07-18T03:59:57;102386.13;;;14.19;77.19
71966;BME280;59836;52.132;5.442;2022-07-18T04:02:24;102391.59;;;14.19;77.36
71966;BME280;59836;52.132;5.442;2022-07-18T04:04:50;102387.78;;;14.20;77.34
71966;BME280;59836;52.132;5.442;2022-07-18T04:07:17;102391.09;;;14.22;77.60
71966;BME280;59836;52.132;5.442;2022-07-18T04:09:43;102385.63;;;14.22;77.00
71966;BME280;59836;52.132;5.442;2022-07-18T04:12:09;102385.63;;;14.22;77.01
71966;BME280;59836;52.132;5.442;2022-07-18T04:14:36;102386.13;;;14.19;76.63
71966;BME280;59836;52.132;5.442;2022-07-18T04:17:02;102372.22;;;14.20;76.90
71966;BME280;59836;52.132;5.442;2022-07-18T04:19:29;102370.91;;;14.23;76.98
71966;BME280;59836;52.132;5.442;2022-07-18T04:21:55;102365.75;;;14.26;76.64
71966;BME280;59836;52.132;5.442;2022-07-18T04:24:22;102379.16;;;14.28;76.85
71966;BME280;59836;52.132;5.442;2022-07-18T04:26:49;102379.16;;;14.28;77.43
71966;BME280;59836;52.132;5.442;2022-07-18T04:29:15;102375.88;;;14.31;77.35
71966;BME280;59836;52.132;5.442;2022-07-18T04:31:42;102377.28;;;14.34;77.49
71966;BME280;59836;52.132;5.442;2022-07-18T04:34:08;102376.19;;;14.35;77.65
71966;BME280;59836;52.132;5.442;2022-07-18T04:36:35;102371.03;;;14.38;77.56
71966;BME280;59836;52.132;5.442;2022-07-18T04:39:01;102378.72;;;14.41;77.57
71966;BME280;59836;52.132;5.442;2022-07-18T04:41:28;102379.84;;;14.45;77.70
71966;BME280;59836;52.132;5.442;2022-07-18T04:44:00;102371.13;;;14.49;77.81
71966;BME280;59836;52.132;5.442;2022-07-18T04:46:27;102377.72;;;14.53;77.90
71966;BME280;59836;52.132;5.442;2022-07-18T04:48:54;102379.94;;;14.56;78.09
71966;BME280;59836;52.132;5.442;2022-07-18T04:51:20;102370.16;;;14.60;77.70
71966;BME280;59836;52.132;5.442;2022-07-18T04:53:46;102371.78;;;14.61;77.36
71966;BME280;59836;52.132;5.442;2022-07-18T04:56:13;102375.66;;;14.65;77.70
71966;BME280;59836;52.132;5.442;2022-07-18T04:58:39;102372.41;;;14.68;77.24
71966;BME280;59836;52.132;5.442;2022-07-18T05:01:06;102377.38;;;14.71;77.59
71966;BME280;59836;52.132;5.442;2022-07-18T05:03:32;102378.50;;;14.75;77.88
71966;BME280;59836;52.132;5.442;2022-07-18T05:05:58;102386.19;;;14.79;77.91
71966;BME280;59836;52.132;5.442;2022-07-18T05:08:25;102397.16;;;14.84;77.91
71966;BME280;59836;52.132;5.442;2022-07-18T05:10:51;102389.53;;;14.86;77.55
71966;BME280;59836;52.132;5.442;2022-07-18T05:13:18;102391.47;;;14.90;76.87
71966;BME280;59836;52.132;5.442;2022-07-18T05:15:45;102388.47;;;14.92;76.59
71966;BME280;59836;52.132;5.442;2022-07-18T05:18:11;102387.13;;;14.95;76.78
71966;BME280;59836;52.132;5.442;2022-07-18T05:20:38;102380.31;;;14.97;76.67
71966;BME280;59836;52.132;5.442;2022-07-18T05:23:09;102384.19;;;15.01;77.01
71966;BME280;59836;52.132;5.442;2022-07-18T05:25:36;102385.84;;;15.02;76.88
71966;BME280;59836;52.132;5.442;2022-07-18T05:28:02;102389.94;;;15.05;76.93
71966;BME280;59836;52.132;5.442;2022-07-18T05:30:29;102388.03;;;15.05;76.82
71966;BME280;59836;52.132;5.442;2022-07-18T05:32:55;102385.34;;;15.11;77.33
71966;BME280;59836;52.132;5.442;2022-07-18T05:35:22;102383.19;;;15.13;77.22
71966;BME280;59836;52.132;5.442;2022-07-18T05:37:49;102381.00;;;15.15;76.33
71966;BME280;59836;52.132;5.442;2022-07-18T05:40:15;102381.00;;;15.15;76.48
71966;BME280;59836;52.132;5.442;2022-07-18T05:42:43;102372.00;;;15.19;76.44
71966;BME280;59836;52.132;5.442;2022-07-18T05:45:21;102383.25;;;15.23;76.40
71966;BME280;59836;52.132;5.442;2022-07-18T05:47:47;102370.44;;;15.29;76.77
71966;BME280;59836;52.132;5.442;2022-07-18T05:50:14;102375.69;;;15.35;76.74
71966;BME280;59836;52.132;5.442;2022-07-18T05:52:40;102365.28;;;15.43;76.66
71966;BME280;59836;52.132;5.442;2022-07-18T05:55:07;102362.63;;;15.53;76.77
71966;BME280;59836;52.132;5.442;2022-07-18T05:57:35;102371.97;;;15.62;76.56
71966;BME280;59836;52.132;5.442;2022-07-18T06:00:06;102355.03;;;15.71;76.87
71966;BME280;59836;52.132;5.442;2022-07-18T06:02:33;102354.00;;;15.82;76.43
71966;BME280;59836;52.132;5.442;2022-07-18T06:05:00;102348.03;;;15.90;76.25
71966;BME280;59836;52.132;5.442;2022-07-18T06:07:46;102348.34;;;16.04;76.44
71966;BME280;59836;52.132;5.442;2022-07-18T06:10:13;102348.66;;;16.13;73.64
71966;BME280;59836;52.132;5.442;2022-07-18T06:12:39;102347.59;;;16.30;73.21
71966;BME280;59836;52.132;5.442;2022-07-18T06:15:06;102348.69;;;16.44;72.54
71966;BME280;59836;52.132;5.442;2022-07-18T06:17:33;102347.03;;;16.59;74.12
71966;BME280;59836;52.132;5.442;2022-07-18T06:20:00;102339.38;;;16.71;73.38
71966;BME280;59836;52.132;5.442;2022-07-18T06:22:26;102344.84;;;16.81;73.08
71966;BME280;59836;52.132;5.442;2022-07-18T06:24:53;102343.75;;;16.93;73.02
71966;BME280;59836;52.132;5.442;2022-07-18T06:27:19;102335.53;;;17.03;74.43
71966;BME280;59836;52.132;5.442;2022-07-18T06:29:46;102345.41;;;17.09;74.37
71966;BME280;59836;52.132;5.442;2022-07-18T06:32:12;102343.19;;;17.17;72.22
71966;BME280;59836;52.132;5.442;2022-07-18T06:34:39;102343.72;;;17.24;72.81
71966;BME280;59836;52.132;5.442;2022-07-18T06:37:05;102344.25;;;17.36;70.73
71966;BME280;59836;52.132;5.442;2022-07-18T06:39:31;102344.22;;;17.47;71.76
71966;BME280;59836;52.132;5.442;2022-07-18T06:41:58;102343.03;;;17.58;71.07
71966;BME280;59836;52.132;5.442;2022-07-18T06:44:24;102338.63;;;17.67;71.12
71966;BME280;59836;52.132;5.442;2022-07-18T06:46:51;102338.56;;;17.78;72.10
71966;BME280;59836;52.132;5.442;2022-07-18T06:49:19;102342.13;;;17.83;71.33
71966;BME280;59836;52.132;5.442;2022-07-18T06:51:46;102342.09;;;17.94;70.42
71966;BME280;59836;52.132;5.442;2022-07-18T06:54:12;102348.34;;;18.05;68.95
71966;BME280;59836;52.132;5.442;2022-07-18T06:56:38;102339.50;;;18.13;70.03
71966;BME280;59836;52.132;5.442;2022-07-18T06:59:05;102344.41;;;18.21;69.02
71966;BME280;59836;52.132;5.442;2022-07-18T07:01:31;102339.13;;;18.30;70.01
71966;BME280;59836;52.132;5.442;2022-07-18T07:03:58;102334.66;;;18.39;69.18
71966;BME280;59836;52.132;5.442;2022-07-18T07:06:25;102330.44;;;18.52;70.24
71966;BME280;59836;52.132;5.442;2022-07-18T07:08:52;102334.75;;;18.58;68.82
71966;BME280;59836;52.132;5.442;2022-07-18T07:11:19;102334.69;;;18.69;68.06
71966;BME280;59836;52.132;5.442;2022-07-18T07:13:48;102330.50;;;18.77;67.74
71966;BME280;59836;52.132;5.442;2022-07-18T07:16:15;102329.00;;;18.89;66.89
71966;BME280;59836;52.132;5.442;2022-07-18T07:18:41;102324.56;;;18.94;66.67
71966;BME280;59836;52.132;5.442;2022-07-18T07:21:07;102328.41;;;18.98;66.30
71966;BME280;59836;52.132;5.442;2022-07-18T07:23:35;102322.78;;;19.08;70.06
71966;BME280;59836;52.132;5.442;2022-07-18T07:26:02;102333.16;;;19.16;68.26
71966;BME280;59836;52.132;5.442;2022-07-18T07:28:28;102327.53;;;19.27;66.67
71966;BME280;59836;52.132;5.442;2022-07-18T07:30:55;102329.06;;;19.38;65.42
71966;BME280;59836;52.132;5.442;2022-07-18T07:33:21;102328.88;;;19.54;65.18
71966;BME280;59836;52.132;5.442;2022-07-18T07:35:48;102320.78;;;19.62;68.55
71966;BME280;59836;52.132;5.442;2022-07-18T07:38:14;102316.00;;;19.68;66.38
71966;BME280;59836;52.132;5.442;2022-07-18T07:40:46;102319.75;;;19.77;66.45
71966;BME280;59836;52.132;5.442;2022-07-18T07:43:15;102329.81;;;19.87;68.43
71966;BME280;59836;52.132;5.442;2022-07-18T07:45:46;102320.91;;;19.96;68.37
71966;BME280;59836;52.132;5.442;2022-07-18T07:48:13;102326.28;;;20.06;71.47
71966;BME280;59836;52.132;5.442;2022-07-18T07:50:39;102334.97;;;20.13;67.23
71966;BME280;59836;52.132;5.442;2022-07-18T07:53:06;102339.00;;;20.21;67.48
71966;BME280;59836;52.132;5.442;2022-07-18T07:55:33;102330.84;;;20.30;66.60
71966;BME280;59836;52.132;5.442;2022-07-18T07:58:00;102332.94;;;20.38;67.40
71966;BME280;59836;52.132;5.442;2022-07-18T08:00:27;102321.53;;;20.45;66.72
71966;BME280;59836;52.132;5.442;2022-07-18T08:02:57;102328.81;;;20.55;64.77
71966;BME280;59836;52.132;5.442;2022-07-18T08:05:27;102326.72;;;20.65;62.88
71966;BME280;59836;52.132;5.442;2022-07-18T08:07:54;102324.06;;;20.74;61.98
71966;BME280;59836;52.132;5.442;2022-07-18T08:10:20;102333.31;;;20.84;61.18
71966;BME280;59836;52.132;5.442;2022-07-18T08:12:47;102313.28;;;20.92;61.28
71966;BME280;59836;52.132;5.442;2022-07-18T08:15:15;102312.59;;;21.00;62.92
71966;BME280;59836;52.132;5.442;2022-07-18T08:17:41;102313.91;;;21.03;63.68
71966;BME280;59836;52.132;5.442;2022-07-18T08:20:13;102309.63;;;21.11;64.44
71966;BME280;59836;52.132;5.442;2022-07-18T08:23:01;102309.91;;;21.23;65.06
71966;BME280;59836;52.132;5.442;2022-07-18T08:25:30;102309.19;;;21.31;63.29
71966;BME280;59836;52.132;5.442;2022-07-18T08:27:58;102304.91;;;21.39;60.25
71966;BME280;59836;52.132;5.442;2022-07-18T08:30:25;102300.81;;;21.50;60.33
71966;BME280;59836;52.132;5.442;2022-07-18T08:32:52;102303.97;;;21.58;62.47
71966;BME280;59836;52.132;5.442;2022-07-18T08:35:19;102301.66;;;21.65;62.23
71966;BME280;59836;52.132;5.442;2022-07-18T08:37:45;102297.31;;;21.73;61.22
71966;BME280;59836;52.132;5.442;2022-07-18T08:40:13;102293.00;;;21.80;59.21
71966;BME280;59836;52.132;5.442;2022-07-18T08:42:40;102298.50;;;21.94;58.05
71966;BME280;59836;52.132;5.442;2022-07-18T08:45:26;102293.53;;;22.05;57.44
71966;BME280;59836;52.132;5.442;2022-07-18T08:47:53;102298.00;;;22.15;57.64
71966;BME280;59836;52.132;5.442;2022-07-18T08:50:20;102300.81;;;22.24;57.85
71966;BME280;59836;52.132;5.442;2022-07-18T08:52:47;102306.59;;;22.36;60.05
71966;BME280;59836;52.132;5.442;2022-07-18T08:55:20;102305.41;;;22.51;55.51
71966;BME280;59836;52.132;5.442;2022-07-18T08:57:52;102301.47;;;22.66;56.18
71966;BME280;59836;52.132;5.442;2022-07-18T09:00:22;102296.63;;;22.81;55.28
71966;BME280;59836;52.132;5.442;2022-07-18T09:02:59;102300.44;;;22.94;56.60
71966;BME280;59836;52.132;5.442;2022-07-18T09:05:27;102301.16;;;23.08;54.78
71966;BME280;59836;52.132;5.442;2022-07-18T09:08:08;102308.81;;;23.20;53.27
71966;BME280;59836;52.132;5.442;2022-07-18T09:13:25;102305.66;;;23.36;53.43
71966;BME280;59836;52.132;5.442;2022-07-18T09:16:20;102308.41;;;23.36;54.57
71966;BME280;59836;52.132;5.442;2022-07-18T09:18:48;102297.50;;;23.31;54.95
71966;BME280;59836;52.132;5.442;2022-07-18T09:21:17;102300.75;;;23.33;54.33
71966;BME280;59836;52.132;5.442;2022-07-18T09:23:50;102306.63;;;23.31;54.32
71966;BME280;59836;52.132;5.442;2022-07-18T09:26:38;102307.75;;;23.30;52.94
71966;BME280;59836;52.132;5.442;2022-07-18T09:29:04;102298.78;;;23.24;53.69
71966;BME280;59836;52.132;5.442;2022-07-18T09:31:51;102305.06;;;23.16;54.39
71966;BME280;59836;52.132;5.442;2022-07-18T09:34:38;102293.16;;;23.07;55.78
71966;BME280;59836;52.132;5.442;2022-07-18T09:37:13;102296.69;;;22.98;57.35
71966;BME280;59836;52.132;5.442;2022-07-18T09:39:39;102294.06;;;22.93;56.10
71966;BME280;59836;52.132;5.442;2022-07-18T09:42:17;102289.19;;;22.90;57.57
71966;BME280;59836;52.132;5.442;2022-07-18T09:45:00;102291.78;;;22.87;57.08
71966;BME280;59836;52.132;5.442;2022-07-18T09:47:27;102287.88;;;22.88;54.55
71966;BME280;59836;52.132;5.442;2022-07-18T09:49:54;102282.66;;;22.86;55.33
71966;BME280;59836;52.132;5.442;2022-07-18T09:52:21;102291.91;;;22.81;55.35
71966;BME280;59836;52.132;5.442;2022-07-18T09:54:48;102285.84;;;22.70;56.08
71966;BME280;59836;52.132;5.442;2022-07-18T09:57:25;102291.03;;;22.63;56.05
71966;BME280;59836;52.132;5.442;2022-07-18T09:59:53;102288.41;;;22.58;54.99
71966;BME280;59836;52.132;5.442;2022-07-18T10:02:19;102276.69;;;22.61;54.59
71966;BME280;59836;52.132;5.442;2022-07-18T10:04:46;102279.06;;;22.77;54.72
71966;BME280;59836;52.132;5.442;2022-07-18T10:07:15;102269.03;;;22.98;53.61
71966;BME280;59836;52.132;5.442;2022-07-18T10:09:42;102278.88;;;23.22;54.35
71966;BME280;59836;52.132;5.442;2022-07-18T10:12:10;102267.53;;;23.41;50.66
71966;BME280;59836;52.132;5.442;2022-07-18T10:14:38;102264.00;;;23.58;51.85
71966;BME280;59836;52.132;5.442;2022-07-18T10:17:05;102266.28;;;23.74;52.58
71966;BME280;59836;52.132;5.442;2022-07-18T10:19:34;102271.97;;;23.95;49.95
71966;BME280;59836;52.132;5.442;2022-07-18T10:22:00;102261.72;;;24.13;47.98
71966;BME280;59836;52.132;5.442;2022-07-18T10:24:28;102263.00;;;24.25;49.79
71966;BME280;59836;52.132;5.442;2022-07-18T10:30:08;102258.38;;;24.46;48.88
71966;BME280;59836;52.132;5.442;2022-07-18T10:32:35;102269.13;;;24.57;46.70
71966;BME280;59836;52.132;5.442;2022-07-18T10:35:02;102265.50;;;24.65;47.30
71966;BME280;59836;52.132;5.442;2022-07-18T10:37:31;102274.97;;;24.73;47.36
71966;BME280;59836;52.132;5.442;2022-07-18T10:40:23;102276.22;;;24.84;47.97
71966;BME280;59836;52.132;5.442;2022-07-18T10:45:59;102258.00;;;25.04;46.37
71966;BME280;59836;52.132;5.442;2022-07-18T10:51:09;102257.56;;;25.24;44.83
71966;BME280;59836;52.132;5.442;2022-07-18T10:58:56;102258.34;;;25.54;45.40
71966;BME280;59836;52.132;5.442;2022-07-18T11:01:23;102259.91;;;25.64;43.87
71966;BME280;59836;52.132;5.442;2022-07-18T11:04:23;102258.06;;;25.68;44.33
71966;BME280;59836;52.132;5.442;2022-07-18T11:07:13;102259.84;;;25.73;44.56
71966;BME280;59836;52.132;5.442;2022-07-18T11:09:43;102256.41;;;25.76;45.14
71966;BME280;59836;52.132;5.442;2022-07-18T11:12:30;102255.41;;;25.93;44.24
71966;BME280;59836;52.132;5.442;2022-07-18T11:18:02;102245.59;;;26.08;44.63
71966;BME280;59836;52.132;5.442;2022-07-18T11:22:59;102237.22;;;26.17;40.75
71966;BME280;59836;52.132;5.442;2022-07-18T11:25:28;102236.53;;;26.20;43.14
71966;BME280;59836;52.132;5.442;2022-07-18T11:28:15;102233.53;;;26.25;41.35
71966;BME280;59836;52.132;5.442;2022-07-18T11:30:43;102234.34;;;26.26;43.68
71966;BME280;59836;52.132;5.442;2022-07-18T11:33:24;102229.84;;;26.33;39.97
71966;BME280;59836;52.132;5.442;2022-07-18T11:35:51;102227.41;;;26.44;40.71
71966;BME280;59836;52.132;5.442;2022-07-18T11:38:18;102226.41;;;26.49;41.67
71966;BME280;59836;52.132;5.442;2022-07-18T11:40:49;102228.59;;;26.56;43.60
71966;BME280;59836;52.132;5.442;2022-07-18T11:43:23;102226.84;;;26.63;43.16
71966;BME280;59836;52.132;5.442;2022-07-18T11:46:03;102218.41;;;26.72;41.71
71966;BME280;59836;52.132;5.442;2022-07-18T11:48:30;102221.75;;;26.78;38.95
71966;BME280;59836;52.132;5.442;2022-07-18T11:50:56;102215.50;;;26.81;38.93
71966;BME280;59836;52.132;5.442;2022-07-18T11:53:23;102210.09;;;26.85;39.42
71966;BME280;59836;52.132;5.442;2022-07-18T11:55:49;102212.63;;;26.90;39.82
71966;BME280;59836;52.132;5.442;2022-07-18T11:58:17;102212.84;;;26.97;40.27
71966;BME280;59836;52.132;5.442;2022-07-18T12:00:45;102197.16;;;27.05;41.01
71966;BME280;59836;52.132;5.442;2022-07-18T12:03:13;102206.53;;;27.13;39.20
71966;BME280;59836;52.132;5.442;2022-07-18T12:08:36;102200.16;;;27.24;38.74
71966;BME280;59836;52.132;5.442;2022-07-18T12:13:44;102193.22;;;27.47;37.45
71966;BME280;59836;52.132;5.442;2022-07-18T12:16:25;102196.50;;;27.49;38.15
71966;BME280;59836;52.132;5.442;2022-07-18T12:18:53;102190.59;;;27.50;35.77
71966;BME280;59836;52.132;5.442;2022-07-18T12:21:21;102190.69;;;27.54;37.93
71966;BME280;59836;52.132;5.442;2022-07-18T12:23:48;102190.06;;;27.61;39.72
71966;BME280;59836;52.132;5.442;2022-07-18T12:26:29;102192.72;;;27.69;36.86
71966;BME280;59836;52.132;5.442;2022-07-18T12:29:12;102185.72;;;27.76;35.72
71966;BME280;59836;52.132;5.442;2022-07-18T12:31:44;102186.25;;;27.81;37.23
71966;BME280;59836;52.132;5.442;2022-07-18T12:34:13;102182.41;;;27.86;37.54
71966;BME280;59836;52.132;5.442;2022-07-18T12:36:53;102182.16;;;27.91;37.76
71966;BME280;59836;52.132;5.442;2022-07-18T12:39:33;102182.59;;;27.93;34.90
71966;BME280;59836;52.132;5.442;2022-07-18T12:42:00;102187.91;;;27.98;36.97
71966;BME280;59836;52.132;5.442;2022-07-18T12:44:28;102179.75;;;28.06;35.74
71966;BME280;59836;52.132;5.442;2022-07-18T12:46:55;102176.22;;;28.09;34.97
71966;BME280;59836;52.132;5.442;2022-07-18T12:49:21;102169.22;;;28.15;33.90
71966;BME280;59836;52.132;5.442;2022-07-18T12:51:48;102168.59;;;28.22;36.22
71966;BME280;59836;52.132;5.442;2022-07-18T12:54:17;102170.31;;;28.26;35.54
71966;BME280;59836;52.132;5.442;2022-07-18T12:56:44;102166.00;;;28.29;34.33
71966;BME280;59836;52.132;5.442;2022-07-18T12:59:11;102167.69;;;28.34;35.86
71966;BME280;59836;52.132;5.442;2022-07-18T13:01:37;102172.22;;;28.38;36.08
71966;BME280;59836;52.132;5.442;2022-07-18T13:04:04;102155.53;;;28.42;35.22
71966;BME280;59836;52.132;5.442;2022-07-18T13:06:31;102163.63;;;28.47;35.02
71966;BME280;59836;52.132;5.442;2022-07-18T13:08:57;102149.84;;;28.54;36.80
71966;BME280;59836;52.132;5.442;2022-07-18T13:11:24;102150.75;;;28.58;31.95
71966;BME280;59836;52.132;5.442;2022-07-18T13:13:55;102151.38;;;28.68;34.29
71966;BME280;59836;52.132;5.442;2022-07-18T13:16:22;102147.13;;;28.74;35.84
71966;BME280;59836;52.132;5.442;2022-07-18T13:18:50;102146.88;;;28.79;35.18
71966;BME280;59836;52.132;5.442;2022-07-18T13:21:16;102145.31;;;28.82;34.58
71966;BME280;59836;52.132;5.442;2022-07-18T13:23:44;102136.59;;;28.83;33.61
71966;BME280;59836;52.132;5.442;2022-07-18T13:26:11;102137.81;;;28.86;33.68